首页
METAR-TAF:

METAR-TAF

机场 :

Pope Air Force Base

費耶特維爾 / Pope, 北卡罗来纳州, 美国

纬度: 35-10N, 经度: 079-02W, 海拔: 61米

当前天气观测

该预报发布于35分钟前的16:56 UTC
风速7节,风向北转西北
温度 16°C
湿度 42%
气压 1020 hPa
能見度: 16.1公里
天空无云

METAR: KPOB 201656Z AUTO 33007KT 10SM CLR 16/03 A3011 RMK AO2 SLP199 T01560031 $

时间: 12:31 (17:31 UTC)

预报

该预报发布于7小时和31分钟前的10:00 UTC
预报有效从20日的 10点(UTC)到 21日的 16点(UTC)
风速6节,风向北转西北
能見度: 8000
少量云层高于800英尺
多云层高于10000英尺
轻雾
成为
从 20日的 14点(UTC)到 20日的 15点(UTC)
风速9节,风向北转西北
能见度10公里或以上
少量云层高于6000英尺
散云层高于15000英尺
成为
从 20日的 17点(UTC)到 20日的 18点(UTC)
风速15节,风向北转西北,有时为20节阵风
能见度10公里或以上
少量云层高于6000英尺
少量云层高于20000英尺
成为
从 20日的 23点(UTC)到 20日的 24点(UTC)
风速6节,风向多变
能见度10公里或以上
天空无云

TAF: KPOB 201000Z 2010/2116 33006KT 8000 BR FEW008 BKN100 QNH2991INS BECMG 2014/2015 34009KT 9999 NSW FEW060 SCT150 QNH3011INS BECMG 2017/2018 34015G20KT 9999 FEW060 FEW200 QNH3011INS BECMG 2023/2024 VRB06KT 9999 SKC QNH3017INS TX15/2019Z TN06/2011Z

超过4000个机场的气象观测和天气预报(METAR&TAF报告)。

可查询的气象台以黄色和红色小点在地图上表示。

将鼠标移到小点上方,可查看气象台名称。

然后点击查看天气观测和预报。

如需切换地图:点击带黑十字的绿色按钮放大地图;点击带横线的绿色按钮缩小地图;或者点击绿色箭头查看邻近地区的地图。


METAR-TAF: